Currently 48°F in Moreno Valley, California, USA
48°F
48°F / 46°F
2 mph S
0.92"
Friday, January 20, 2017 2:02 PM PST

Moreno Valley, California Weather Summary
Last 36 Hours

Temperature Winds Hourly Humidity Dewpoint
Time Report Norm Report Norm Max Gusts Precip. Rpt. Norm Rpt. Norm Pressure
1,2Fri 02:02 PM  48.4°F  68°F  2 mph S  5 mph  18 mph  0.00"  100%  37%  48°F  40°F  27.63"
Fri 02:00 PM  48.2°F  68°F  4 mph S  5 mph  22 mph  0.18"  100%  37%  48°F  40°F  27.63"
Fri 01:00 PM  46.8°F  67°F  12 mph SE  4 mph  21 mph  0.15"  100%  39%  47°F  40°F  27.63"
Fri 12:00 PM  47.9°F  66°F  9 mph SE  4 mph  18 mph  0.15"  100%  40%  48°F  40°F  27.69"
Fri 11:00 AM  48.0°F  64°F  7 mph SE  4 mph  17 mph  0.03"  100%  43%  48°F  40°F  27.78"
Fri 10:00 AM  47.4°F  62°F  7 mph SE  3 mph  14 mph  0.04"  100%  47%  47°F  41°F  27.84"
Fri 09:00 AM  46.5°F  59°F  10 mph SE  2 mph  10 mph  0.04"  100%  51%  47°F  40°F  27.86"
Fri 08:00 AM  46.6°F  54°F  7 mph SE  2 mph  9 mph  0.08"  100%  58%  47°F  39°F  27.88"
Fri 07:00 AM  46.2°F  51°F  5 mph SE  2 mph  7 mph  0.01"  100%  59%  46°F  36°F  27.90"
Fri 06:00 AM  46.0°F  51°F  calm  2 mph  none  0.04"  100%  59%  46°F  36°F  27.92"
3Fri 05:26 AM  45.8°F  51°F  calm  1 mph  none  ----  100%  59%  46°F  36°F  27.92"
Fri 05:00 AM  45.9°F  51°F  calm  1 mph  1 mph  0.08"  100%  58%  46°F  36°F  27.92"
Fri 04:00 AM  46.3°F  52°F  calm  2 mph  7 mph  0.09"  100%  57%  46°F  37°F  27.91"
Fri 03:00 AM  47.4°F  52°F  4 mph S  2 mph  7 mph  0.02"  100%  57%  47°F  37°F  27.96"
Fri 02:00 AM  47.5°F  52°F  2 mph SE  1 mph  8 mph  0.01"  100%  58%  47°F  37°F  27.97"
Fri 01:00 AM  47.5°F  53°F  4 mph SE  1 mph  9 mph  0.00"  100%  57%  47°F  37°F  27.97"
Fri 12:00 AM  47.8°F  53°F  2 mph SE  2 mph  6 mph  0.05"  99%  56%  48°F  37°F  27.99"
Thu 11:00 PM  48.0°F  53°F  3 mph SE  1 mph  6 mph  0.00"  98%  56%  47°F  37°F  28.01"
Thu 10:00 PM  48.5°F  54°F  4 mph SE  1 mph  8 mph  0.00"  97%  55%  48°F  37°F  28.03"
Thu 09:00 PM  49.1°F  55°F  3 mph SE  2 mph  8 mph  0.00"  95%  54%  48°F  38°F  28.03"
Thu 08:00 PM  49.4°F  56°F  calm  2 mph  9 mph  0.00"  93%  52%  47°F  38°F  28.03"
Thu 07:00 PM  50.6°F  57°F  4 mph SE  3 mph  6 mph  0.00"  91%  50%  48°F  38°F  28.03"
Thu 06:00 PM  51.1°F  59°F  4 mph SW  3 mph  8 mph  0.00"  88%  48%  48°F  38°F  28.04"
Thu 05:00 PM  52.6°F  62°F  3 mph SW  3 mph  14 mph  0.00"  83%  43%  47°F  39°F  28.02"
Thu 04:00 PM  56.0°F  66°F  8 mph SW  4 mph  16 mph  0.00"  76%  38%  48°F  39°F  28.01"
Thu 03:00 PM  56.0°F  68°F  6 mph SW  5 mph  11 mph  0.01"  82%  36%  50°F  39°F  28.01"
Thu 02:00 PM  55.4°F  68°F  4 mph W  5 mph  12 mph  0.00"  85%  36%  51°F  39°F  28.03"
Thu 01:00 PM  53.0°F  68°F  4 mph NW  4 mph  13 mph  0.05"  94%  36%  51°F  39°F  28.04"
Thu 12:00 PM  52.9°F  66°F  5 mph W  3 mph  12 mph  0.00"  95%  38%  52°F  39°F  28.07"
Thu 11:00 AM  52.1°F  64°F  7 mph W  4 mph  15 mph  0.00"  99%  41%  52°F  39°F  28.09"
Thu 10:00 AM  51.7°F  62°F  8 mph W  3 mph  13 mph  0.00"  100%  46%  52°F  40°F  28.09"
Thu 09:00 AM  48.6°F  59°F  4 mph SE  2 mph  15 mph  0.01"  100%  50%  49°F  39°F  28.07"
Thu 08:00 AM  47.2°F  54°F  11 mph E  2 mph  20 mph  0.04"  100%  56%  47°F  38°F  28.05"
Thu 07:00 AM  46.6°F  50°F  10 mph SE  2 mph  17 mph  0.20"  100%  57%  47°F  35°F  28.05"
Thu 06:00 AM  46.8°F  50°F  7 mph SE  1 mph  16 mph  0.15"  100%  57%  47°F  35°F  28.05"
Thu 05:00 AM  47.1°F  51°F  11 mph SE  2 mph  14 mph  0.09"  99%  57%  47°F  35°F  28.08"
Thu 04:00 AM  48.0°F  51°F  calm  2 mph  8 mph  0.04"  98%  56%  48°F  36°F  28.12"
Thu 03:00 AM  48.4°F  52°F  3 mph SW  2 mph  6 mph  0.00"  98%  56%  48°F  36°F  28.15"

  1. Current weather data. No green row appears if the current weather data is also the high or low for the current day.
  2. High temperature for the current day.
  3. Low temperature for the current day.

The Moreno Valley, California weather pages are a service of WeatherCurrents. Moreno Valley is located in Southern California's Inland Empire, east of Riverside and north of Perris, along the State Route 60 freeway.
Copyright ©Fri Jan 20 14:03:56 PST 2017  WeatherCurrents. All rights reserved. - Submit questions and comments - Privacy Policy

This page automatically refreshes every 10 minutes.